sensor_id;sensor_type;location;lat;lon;timestamp;pressure;altitude;pressure_sealevel;temperature;humidity
63339;BME280;70568;51.378;-1.342;2024-01-07T00:01:47;100836.52;;;1.13;35.71
63339;BME280;70568;51.378;-1.342;2024-01-07T00:04:14;100836.59;;;4.84;33.95
63339;BME280;70568;51.378;-1.342;2024-01-07T00:06:41;100840.22;;;3.05;34.90
63339;BME280;70568;51.378;-1.342;2024-01-07T00:09:07;100844.11;;;2.04;35.90
63339;BME280;70568;51.378;-1.342;2024-01-07T00:11:34;100842.05;;;1.44;37.51
63339;BME280;70568;51.378;-1.342;2024-01-07T00:14:01;100843.96;;;2.07;36.09
63339;BME280;70568;51.378;-1.342;2024-01-07T00:16:28;100850.09;;;0.88;37.65
63339;BME280;70568;51.378;-1.342;2024-01-07T00:18:55;100852.12;;;0.48;36.84
63339;BME280;70568;51.378;-1.342;2024-01-07T00:21:22;100857.41;;;-0.62;38.11
63339;BME280;70568;51.378;-1.342;2024-01-07T00:23:48;100852.36;;;2.10;36.26
63339;BME280;70568;51.378;-1.342;2024-01-07T00:26:15;100856.11;;;0.73;37.55
63339;BME280;70568;51.378;-1.342;2024-01-07T00:28:42;100860.60;;;-0.53;37.22
63339;BME280;70568;51.378;-1.342;2024-01-07T00:31:11;100861.04;;;1.34;34.89
63339;BME280;70568;51.378;-1.342;2024-01-07T00:33:37;100865.94;;;-0.65;37.76
63339;BME280;70568;51.378;-1.342;2024-01-07T00:36:04;100871.25;;;0.50;37.47
63339;BME280;70568;51.378;-1.342;2024-01-07T00:38:32;100873.16;;;1.11;37.20
63339;BME280;70568;51.378;-1.342;2024-01-07T00:40:58;100875.28;;;0.96;36.73
63339;BME280;70568;51.378;-1.342;2024-01-07T00:43:25;100872.63;;;4.31;33.98
63339;BME280;70568;51.378;-1.342;2024-01-07T00:45:53;100875.19;;;2.67;33.97
63339;BME280;70568;51.378;-1.342;2024-01-07T00:48:20;100877.07;;;1.78;34.71
63339;BME280;70568;51.378;-1.342;2024-01-07T00:50:47;100876.56;;;0.46;36.04
63339;BME280;70568;51.378;-1.342;2024-01-07T00:53:14;100876.51;;;1.95;35.03
63339;BME280;70568;51.378;-1.342;2024-01-07T00:55:40;100878.31;;;2.58;34.69
63339;BME280;70568;51.378;-1.342;2024-01-07T00:58:07;100878.61;;;1.88;35.45
63339;BME280;70568;51.378;-1.342;2024-01-07T01:00:33;100880.12;;;2.29;35.72
63339;BME280;70568;51.378;-1.342;2024-01-07T01:03:00;100882.59;;;1.42;36.46
63339;BME280;70568;51.378;-1.342;2024-01-07T01:05:26;100879.72;;;2.24;34.75
63339;BME280;70568;51.378;-1.342;2024-01-07T01:07:53;100879.67;;;1.77;34.14
63339;BME280;70568;51.378;-1.342;2024-01-07T01:10:20;100878.93;;;2.03;35.85
63339;BME280;70568;51.378;-1.342;2024-01-07T01:12:46;100887.56;;;-0.79;38.30
63339;BME280;70568;51.378;-1.342;2024-01-07T01:15:13;100886.65;;;0.43;37.28
63339;BME280;70568;51.378;-1.342;2024-01-07T01:17:40;100887.80;;;0.81;35.85
63339;BME280;70568;51.378;-1.342;2024-01-07T01:20:08;100888.58;;;-0.54;36.97
63339;BME280;70568;51.378;-1.342;2024-01-07T01:22:35;100888.25;;;0.73;35.61
63339;BME280;70568;51.378;-1.342;2024-01-07T01:25:03;100887.93;;;1.18;35.47
63339;BME280;70568;51.378;-1.342;2024-01-07T01:27:30;100889.34;;;2.30;33.76
63339;BME280;70568;51.378;-1.342;2024-01-07T01:29:56;100892.49;;;0.02;35.71
63339;BME280;70568;51.378;-1.342;2024-01-07T01:32:23;100892.73;;;2.11;34.88
63339;BME280;70568;51.378;-1.342;2024-01-07T01:34:50;100897.35;;;-0.74;37.42
63339;BME280;70568;51.378;-1.342;2024-01-07T01:37:17;100897.01;;;2.05;34.94
63339;BME280;70568;51.378;-1.342;2024-01-07T01:39:45;100898.80;;;0.80;36.38
63339;BME280;70568;51.378;-1.342;2024-01-07T01:42:13;100898.13;;;1.23;35.52
63339;BME280;70568;51.378;-1.342;2024-01-07T01:44:40;100903.36;;;1.09;36.33
63339;BME280;70568;51.378;-1.342;2024-01-07T01:47:06;100905.79;;;-1.04;37.80
63339;BME280;70568;51.378;-1.342;2024-01-07T01:49:34;100910.76;;;-0.01;37.13
63339;BME280;70568;51.378;-1.342;2024-01-07T01:52:01;100914.54;;;0.09;38.47
63339;BME280;70568;51.378;-1.342;2024-01-07T01:54:28;100915.88;;;0.22;37.27
63339;BME280;70568;51.378;-1.342;2024-01-07T01:56:55;100916.33;;;1.45;35.49
63339;BME280;70568;51.378;-1.342;2024-01-07T01:59:23;100922.67;;;0.07;37.64
63339;BME280;70568;51.378;-1.342;2024-01-07T02:01:50;100925.19;;;-0.56;39.58
63339;BME280;70568;51.378;-1.342;2024-01-07T02:04:17;100927.03;;;1.46;36.34
63339;BME280;70568;51.378;-1.342;2024-01-07T02:06:45;100927.46;;;0.85;36.29
63339;BME280;70568;51.378;-1.342;2024-01-07T02:09:12;100928.26;;;1.40;34.47
63339;BME280;70568;51.378;-1.342;2024-01-07T02:11:39;100931.19;;;1.04;35.16
63339;BME280;70568;51.378;-1.342;2024-01-07T02:14:06;100934.58;;;1.00;35.90
63339;BME280;70568;51.378;-1.342;2024-01-07T02:16:33;100938.03;;;-0.48;39.03
63339;BME280;70568;51.378;-1.342;2024-01-07T02:19:01;100944.28;;;0.75;36.61
63339;BME280;70568;51.378;-1.342;2024-01-07T02:21:28;100946.49;;;2.10;34.35
63339;BME280;70568;51.378;-1.342;2024-01-07T02:23:54;100946.99;;;2.97;33.89
63339;BME280;70568;51.378;-1.342;2024-01-07T02:26:21;100956.69;;;0.45;35.00
63339;BME280;70568;51.378;-1.342;2024-01-07T02:28:48;100955.33;;;1.12;34.80
63339;BME280;70568;51.378;-1.342;2024-01-07T02:31:15;100963.22;;;-3.11;39.10
63339;BME280;70568;51.378;-1.342;2024-01-07T02:33:42;100961.55;;;-0.10;36.27
63339;BME280;70568;51.378;-1.342;2024-01-07T02:36:08;100958.74;;;0.98;35.18
63339;BME280;70568;51.378;-1.342;2024-01-07T02:38:35;100955.24;;;-0.29;36.23
63339;BME280;70568;51.378;-1.342;2024-01-07T02:41:03;100957.47;;;0.09;36.59
63339;BME280;70568;51.378;-1.342;2024-01-07T02:43:30;100959.15;;;1.70;34.01
63339;BME280;70568;51.378;-1.342;2024-01-07T02:45:57;100962.57;;;-0.62;37.66
63339;BME280;70568;51.378;-1.342;2024-01-07T02:48:24;100958.18;;;1.05;35.78
63339;BME280;70568;51.378;-1.342;2024-01-07T02:50:51;100958.53;;;-1.41;37.06
63339;BME280;70568;51.378;-1.342;2024-01-07T02:53:18;100957.38;;;0.95;35.90
63339;BME280;70568;51.378;-1.342;2024-01-07T02:55:45;100957.59;;;1.01;34.27
63339;BME280;70568;51.378;-1.342;2024-01-07T02:58:11;100955.58;;;1.70;33.16
63339;BME280;70568;51.378;-1.342;2024-01-07T03:00:38;100957.08;;;1.43;33.98
63339;BME280;70568;51.378;-1.342;2024-01-07T03:03:05;100962.19;;;1.21;33.20
63339;BME280;70568;51.378;-1.342;2024-01-07T03:05:33;100959.88;;;1.59;32.56
63339;BME280;70568;51.378;-1.342;2024-01-07T03:08:00;100960.68;;;1.40;31.91
63339;BME280;70568;51.378;-1.342;2024-01-07T03:10:27;100958.34;;;2.15;31.78
63339;BME280;70568;51.378;-1.342;2024-01-07T03:12:54;100962.70;;;0.03;32.79
63339;BME280;70568;51.378;-1.342;2024-01-07T03:15:21;100966.08;;;2.19;32.18
63339;BME280;70568;51.378;-1.342;2024-01-07T03:17:48;100971.36;;;0.64;34.07
63339;BME280;70568;51.378;-1.342;2024-01-07T03:20:14;100973.69;;;0.36;33.98
63339;BME280;70568;51.378;-1.342;2024-01-07T03:22:41;100971.91;;;2.58;31.60
63339;BME280;70568;51.378;-1.342;2024-01-07T03:25:08;100967.51;;;2.58;31.94
63339;BME280;70568;51.378;-1.342;2024-01-07T03:27:35;100968.33;;;-0.22;34.45
63339;BME280;70568;51.378;-1.342;2024-01-07T03:30:02;100973.33;;;-2.69;37.88
63339;BME280;70568;51.378;-1.342;2024-01-07T03:32:29;100971.16;;;0.65;35.01
63339;BME280;70568;51.378;-1.342;2024-01-07T03:34:56;100974.92;;;0.85;35.85
63339;BME280;70568;51.378;-1.342;2024-01-07T03:37:23;100975.39;;;1.08;35.10
63339;BME280;70568;51.378;-1.342;2024-01-07T03:39:50;100975.09;;;1.45;34.14
63339;BME280;70568;51.378;-1.342;2024-01-07T03:42:17;100975.87;;;1.31;35.10
63339;BME280;70568;51.378;-1.342;2024-01-07T03:44:44;100977.27;;;2.61;33.43
63339;BME280;70568;51.378;-1.342;2024-01-07T03:47:11;100981.30;;;0.19;36.08
63339;BME280;70568;51.378;-1.342;2024-01-07T03:49:38;100985.95;;;0.58;36.04
63339;BME280;70568;51.378;-1.342;2024-01-07T03:52:06;100996.17;;;-1.24;38.91
63339;BME280;70568;51.378;-1.342;2024-01-07T03:54:33;100986.44;;;0.81;36.27
63339;BME280;70568;51.378;-1.342;2024-01-07T03:57:00;100990.48;;;0.21;37.61
63339;BME280;70568;51.378;-1.342;2024-01-07T03:59:27;100994.38;;;0.47;37.54
63339;BME280;70568;51.378;-1.342;2024-01-07T04:01:56;100990.36;;;-0.04;36.77
63339;BME280;70568;51.378;-1.342;2024-01-07T04:04:22;100995.08;;;-1.76;38.68
63339;BME280;70568;51.378;-1.342;2024-01-07T04:06:50;101000.13;;;-2.10;39.26
63339;BME280;70568;51.378;-1.342;2024-01-07T04:09:18;101001.72;;;-1.03;37.71
63339;BME280;70568;51.378;-1.342;2024-01-07T04:11:45;101003.42;;;-2.77;37.24
63339;BME280;70568;51.378;-1.342;2024-01-07T04:14:14;100997.50;;;-0.29;35.17
63339;BME280;70568;51.378;-1.342;2024-01-07T04:16:42;100998.54;;;0.11;34.57
63339;BME280;70568;51.378;-1.342;2024-01-07T04:19:09;101000.37;;;-0.90;36.28
63339;BME280;70568;51.378;-1.342;2024-01-07T04:21:36;101004.98;;;-1.34;36.68
63339;BME280;70568;51.378;-1.342;2024-01-07T04:24:03;100998.01;;;0.53;33.51
63339;BME280;70568;51.378;-1.342;2024-01-07T04:26:30;100999.60;;;0.44;33.32
63339;BME280;70568;51.378;-1.342;2024-01-07T04:28:56;101002.43;;;0.82;32.72
63339;BME280;70568;51.378;-1.342;2024-01-07T04:31:23;101007.48;;;0.49;32.60
63339;BME280;70568;51.378;-1.342;2024-01-07T04:33:50;101008.63;;;0.26;32.59
63339;BME280;70568;51.378;-1.342;2024-01-07T04:36:16;101012.25;;;0.70;32.26
63339;BME280;70568;51.378;-1.342;2024-01-07T04:38:43;101013.47;;;1.48;31.89
63339;BME280;70568;51.378;-1.342;2024-01-07T04:41:10;101010.86;;;1.34;31.46
63339;BME280;70568;51.378;-1.342;2024-01-07T04:43:36;101013.85;;;0.94;32.58
63339;BME280;70568;51.378;-1.342;2024-01-07T04:46:03;101016.38;;;0.88;32.63
63339;BME280;70568;51.378;-1.342;2024-01-07T04:48:29;101021.51;;;-0.68;35.41
63339;BME280;70568;51.378;-1.342;2024-01-07T04:50:56;101021.52;;;0.17;34.07
63339;BME280;70568;51.378;-1.342;2024-01-07T04:53:23;101024.72;;;0.42;33.19
63339;BME280;70568;51.378;-1.342;2024-01-07T04:55:50;101035.14;;;-1.22;35.83
63339;BME280;70568;51.378;-1.342;2024-01-07T04:58:17;101032.36;;;0.66;33.79
63339;BME280;70568;51.378;-1.342;2024-01-07T05:00:43;101037.43;;;-1.59;35.86
63339;BME280;70568;51.378;-1.342;2024-01-07T05:03:10;101036.10;;;-0.39;34.97
63339;BME280;70568;51.378;-1.342;2024-01-07T05:05:37;101039.18;;;-0.68;34.63
63339;BME280;70568;51.378;-1.342;2024-01-07T05:08:04;101036.87;;;0.52;33.57
63339;BME280;70568;51.378;-1.342;2024-01-07T05:10:32;101037.92;;;-0.57;34.71
63339;BME280;70568;51.378;-1.342;2024-01-07T05:12:59;101042.24;;;0.28;35.38
63339;BME280;70568;51.378;-1.342;2024-01-07T05:15:27;101042.56;;;-1.93;36.27
63339;BME280;70568;51.378;-1.342;2024-01-07T05:17:54;101049.35;;;-3.06;38.07
63339;BME280;70568;51.378;-1.342;2024-01-07T05:20:21;101043.88;;;-0.17;34.70
63339;BME280;70568;51.378;-1.342;2024-01-07T05:22:47;101049.19;;;0.50;33.46
63339;BME280;70568;51.378;-1.342;2024-01-07T05:25:14;101054.99;;;0.26;33.52
63339;BME280;70568;51.378;-1.342;2024-01-07T05:27:41;101055.75;;;1.26;32.44
63339;BME280;70568;51.378;-1.342;2024-01-07T05:30:08;101065.18;;;-0.47;33.83
63339;BME280;70568;51.378;-1.342;2024-01-07T05:32:35;101061.81;;;0.70;32.68
63339;BME280;70568;51.378;-1.342;2024-01-07T05:35:01;101063.99;;;1.25;32.09
63339;BME280;70568;51.378;-1.342;2024-01-07T05:37:28;101068.90;;;0.16;31.76
63339;BME280;70568;51.378;-1.342;2024-01-07T05:39:56;101073.13;;;1.28;32.85
63339;BME280;70568;51.378;-1.342;2024-01-07T05:42:24;101069.13;;;1.21;31.88
63339;BME280;70568;51.378;-1.342;2024-01-07T05:44:51;101075.41;;;0.89;32.44
63339;BME280;70568;51.378;-1.342;2024-01-07T05:47:17;101079.84;;;1.82;31.47
63339;BME280;70568;51.378;-1.342;2024-01-07T05:49:44;101081.60;;;0.90;32.37
63339;BME280;70568;51.378;-1.342;2024-01-07T05:52:11;101090.84;;;-0.66;35.56
63339;BME280;70568;51.378;-1.342;2024-01-07T05:54:38;101087.49;;;1.35;33.10
63339;BME280;70568;51.378;-1.342;2024-01-07T05:57:04;101088.15;;;0.53;32.54
63339;BME280;70568;51.378;-1.342;2024-01-07T05:59:31;101087.72;;;0.62;32.93
63339;BME280;70568;51.378;-1.342;2024-01-07T06:01:59;101088.39;;;0.84;32.52
63339;BME280;70568;51.378;-1.342;2024-01-07T06:04:26;101090.02;;;0.97;31.85
63339;BME280;70568;51.378;-1.342;2024-01-07T06:06:54;101090.30;;;1.56;32.23
63339;BME280;70568;51.378;-1.342;2024-01-07T06:09:22;101096.08;;;0.37;32.08
63339;BME280;70568;51.378;-1.342;2024-01-07T06:11:49;101101.72;;;0.89;31.57
63339;BME280;70568;51.378;-1.342;2024-01-07T06:14:16;101110.88;;;-2.05;34.12
63339;BME280;70568;51.378;-1.342;2024-01-07T06:16:43;101110.67;;;-0.87;35.47
63339;BME280;70568;51.378;-1.342;2024-01-07T06:19:10;101115.80;;;-0.12;34.35
63339;BME280;70568;51.378;-1.342;2024-01-07T06:21:36;101116.41;;;-1.22;34.68
63339;BME280;70568;51.378;-1.342;2024-01-07T06:24:03;101111.23;;;0.67;33.02
63339;BME280;70568;51.378;-1.342;2024-01-07T06:26:31;101113.60;;;0.39;33.11
63339;BME280;70568;51.378;-1.342;2024-01-07T06:28:58;101122.29;;;-0.06;32.88
63339;BME280;70568;51.378;-1.342;2024-01-07T06:31:25;101125.00;;;-0.96;33.22
63339;BME280;70568;51.378;-1.342;2024-01-07T06:33:51;101122.53;;;0.91;31.67
63339;BME280;70568;51.378;-1.342;2024-01-07T06:36:18;101122.34;;;0.14;30.64
63339;BME280;70568;51.378;-1.342;2024-01-07T06:38:44;101120.50;;;0.50;30.90
63339;BME280;70568;51.378;-1.342;2024-01-07T06:41:11;101123.11;;;0.71;30.61
63339;BME280;70568;51.378;-1.342;2024-01-07T06:43:38;101131.43;;;-3.51;34.67
63339;BME280;70568;51.378;-1.342;2024-01-07T06:46:05;101134.42;;;-1.68;33.64
63339;BME280;70568;51.378;-1.342;2024-01-07T06:48:32;101134.80;;;-1.38;33.02
63339;BME280;70568;51.378;-1.342;2024-01-07T06:51:00;101134.78;;;-0.27;31.16
63339;BME280;70568;51.378;-1.342;2024-01-07T06:53:26;101137.07;;;0.00;30.70
63339;BME280;70568;51.378;-1.342;2024-01-07T06:55:53;101144.06;;;-0.67;31.79
63339;BME280;70568;51.378;-1.342;2024-01-07T06:58:19;101143.67;;;1.04;30.74
63339;BME280;70568;51.378;-1.342;2024-01-07T07:00:46;101153.37;;;0.45;30.90
63339;BME280;70568;51.378;-1.342;2024-01-07T07:03:12;101156.88;;;-0.55;30.42
63339;BME280;70568;51.378;-1.342;2024-01-07T07:05:39;101161.16;;;-2.36;32.55
63339;BME280;70568;51.378;-1.342;2024-01-07T07:08:06;101158.53;;;0.41;30.83
63339;BME280;70568;51.378;-1.342;2024-01-07T07:10:34;101164.76;;;-0.67;32.17
63339;BME280;70568;51.378;-1.342;2024-01-07T07:13:00;101161.74;;;-0.62;30.82
63339;BME280;70568;51.378;-1.342;2024-01-07T07:15:27;101159.87;;;-0.85;32.25
63339;BME280;70568;51.378;-1.342;2024-01-07T07:17:54;101157.06;;;1.60;30.78
63339;BME280;70568;51.378;-1.342;2024-01-07T07:20:21;101166.35;;;-3.63;34.73
63339;BME280;70568;51.378;-1.342;2024-01-07T07:22:48;101171.64;;;-1.83;33.39
63339;BME280;70568;51.378;-1.342;2024-01-07T07:25:14;101173.59;;;-0.39;33.17
63339;BME280;70568;51.378;-1.342;2024-01-07T07:27:41;101178.09;;;0.46;32.07
63339;BME280;70568;51.378;-1.342;2024-01-07T07:30:08;101180.85;;;-1.78;32.18
63339;BME280;70568;51.378;-1.342;2024-01-07T07:32:34;101183.65;;;-1.08;31.95
63339;BME280;70568;51.378;-1.342;2024-01-07T07:35:01;101184.26;;;0.45;30.68
63339;BME280;70568;51.378;-1.342;2024-01-07T07:37:27;101189.63;;;-1.21;33.08
63339;BME280;70568;51.378;-1.342;2024-01-07T07:39:54;101196.29;;;-2.80;34.52
63339;BME280;70568;51.378;-1.342;2024-01-07T07:42:21;101203.71;;;-1.96;35.47
63339;BME280;70568;51.378;-1.342;2024-01-07T07:44:47;101210.20;;;-3.53;37.15
63339;BME280;70568;51.378;-1.342;2024-01-07T07:47:14;101209.85;;;-2.48;34.99
63339;BME280;70568;51.378;-1.342;2024-01-07T07:49:40;101208.87;;;-1.86;33.87
63339;BME280;70568;51.378;-1.342;2024-01-07T07:52:07;101215.21;;;-3.55;36.23
63339;BME280;70568;51.378;-1.342;2024-01-07T07:54:34;101211.00;;;-0.18;32.89
63339;BME280;70568;51.378;-1.342;2024-01-07T07:57:00;101215.98;;;-2.64;33.92
63339;BME280;70568;51.378;-1.342;2024-01-07T07:59:27;101216.84;;;-0.68;34.21
63339;BME280;70568;51.378;-1.342;2024-01-07T08:01:53;101223.24;;;-4.16;37.39
63339;BME280;70568;51.378;-1.342;2024-01-07T08:04:20;101221.80;;;-4.69;36.49
63339;BME280;70568;51.378;-1.342;2024-01-07T08:06:47;101222.76;;;-1.87;34.94
63339;BME280;70568;51.378;-1.342;2024-01-07T08:09:13;101233.80;;;-3.61;36.44
63339;BME280;70568;51.378;-1.342;2024-01-07T08:11:40;101236.51;;;-3.02;35.91
63339;BME280;70568;51.378;-1.342;2024-01-07T08:14:07;101239.30;;;-1.96;35.02
63339;BME280;70568;51.378;-1.342;2024-01-07T08:16:34;101242.09;;;-2.92;35.64
63339;BME280;70568;51.378;-1.342;2024-01-07T08:19:01;101240.06;;;-1.51;33.19
63339;BME280;70568;51.378;-1.342;2024-01-07T08:21:27;101243.06;;;-3.47;35.62
63339;BME280;70568;51.378;-1.342;2024-01-07T08:23:54;101253.32;;;-4.41;38.20
63339;BME280;70568;51.378;-1.342;2024-01-07T08:26:21;101245.17;;;-2.80;35.56
63339;BME280;70568;51.378;-1.342;2024-01-07T08:28:48;101250.50;;;-3.15;35.57
63339;BME280;70568;51.378;-1.342;2024-01-07T08:31:15;101248.90;;;-2.41;35.59
63339;BME280;70568;51.378;-1.342;2024-01-07T08:33:41;101255.80;;;-3.82;37.62
63339;BME280;70568;51.378;-1.342;2024-01-07T08:36:08;101250.91;;;-1.11;35.12
63339;BME280;70568;51.378;-1.342;2024-01-07T08:38:35;101250.16;;;-2.12;35.08
63339;BME280;70568;51.378;-1.342;2024-01-07T08:41:01;101250.88;;;-0.57;33.49
63339;BME280;70568;51.378;-1.342;2024-01-07T08:43:28;101247.97;;;-0.64;34.65
63339;BME280;70568;51.378;-1.342;2024-01-07T08:45:54;101252.47;;;-4.21;35.99
63339;BME280;70568;51.378;-1.342;2024-01-07T08:48:21;101252.91;;;-1.88;35.71
63339;BME280;70568;51.378;-1.342;2024-01-07T08:50:48;101250.90;;;-1.45;34.15
63339;BME280;70568;51.378;-1.342;2024-01-07T08:53:14;101256.07;;;-1.83;35.66
63339;BME280;70568;51.378;-1.342;2024-01-07T08:55:42;101257.48;;;-3.42;37.21
63339;BME280;70568;51.378;-1.342;2024-01-07T08:58:10;101261.82;;;-5.91;40.48
63339;BME280;70568;51.378;-1.342;2024-01-07T09:00:37;101262.74;;;-3.18;37.37
63339;BME280;70568;51.378;-1.342;2024-01-07T09:03:05;101261.48;;;-3.98;37.26
63339;BME280;70568;51.378;-1.342;2024-01-07T09:05:33;101259.62;;;-2.54;35.14
63339;BME280;70568;51.378;-1.342;2024-01-07T09:07:59;101260.98;;;-1.78;34.54
63339;BME280;70568;51.378;-1.342;2024-01-07T09:10:26;101260.90;;;-0.61;33.71
63339;BME280;70568;51.378;-1.342;2024-01-07T09:12:53;101261.38;;;-3.87;36.46
63339;BME280;70568;51.378;-1.342;2024-01-07T09:15:20;101258.87;;;-2.19;34.25
63339;BME280;70568;51.378;-1.342;2024-01-07T09:17:48;101268.20;;;-1.61;34.07
63339;BME280;70568;51.378;-1.342;2024-01-07T09:20:15;101276.87;;;-2.11;35.58
63339;BME280;70568;51.378;-1.342;2024-01-07T09:22:42;101277.90;;;-1.34;34.91
63339;BME280;70568;51.378;-1.342;2024-01-07T09:25:09;101278.49;;;-1.24;33.74
63339;BME280;70568;51.378;-1.342;2024-01-07T09:27:36;101277.67;;;-0.63;32.87
63339;BME280;70568;51.378;-1.342;2024-01-07T09:30:03;101282.80;;;-3.66;36.57
63339;BME280;70568;51.378;-1.342;2024-01-07T09:32:31;101278.37;;;-1.57;33.59
63339;BME280;70568;51.378;-1.342;2024-01-07T09:34:57;101283.01;;;0.11;32.28
63339;BME280;70568;51.378;-1.342;2024-01-07T09:37:24;101285.97;;;0.70;31.52
63339;BME280;70568;51.378;-1.342;2024-01-07T09:39:51;101292.22;;;1.25;30.50
63339;BME280;70568;51.378;-1.342;2024-01-07T09:42:18;101301.64;;;-0.61;32.28
63339;BME280;70568;51.378;-1.342;2024-01-07T09:44:45;101303.49;;;-0.03;31.64
63339;BME280;70568;51.378;-1.342;2024-01-07T09:47:13;101307.34;;;-2.08;33.46
63339;BME280;70568;51.378;-1.342;2024-01-07T09:49:41;101309.14;;;-2.00;34.79
63339;BME280;70568;51.378;-1.342;2024-01-07T09:52:09;101310.95;;;-0.07;34.60
63339;BME280;70568;51.378;-1.342;2024-01-07T09:54:37;101314.51;;;-2.97;38.04
63339;BME280;70568;51.378;-1.342;2024-01-07T09:57:06;101316.57;;;-5.61;39.09
63339;BME280;70568;51.378;-1.342;2024-01-07T09:59:34;101321.68;;;-3.70;39.00
63339;BME280;70568;51.378;-1.342;2024-01-07T10:02:01;101311.89;;;-1.62;35.15
63339;BME280;70568;51.378;-1.342;2024-01-07T10:04:28;101316.53;;;-0.23;34.42
63339;BME280;70568;51.378;-1.342;2024-01-07T10:06:55;101317.42;;;-1.38;32.60
63339;BME280;70568;51.378;-1.342;2024-01-07T10:09:22;101317.66;;;-2.52;34.81
63339;BME280;70568;51.378;-1.342;2024-01-07T10:11:49;101336.80;;;-6.95;41.43
63339;BME280;70568;51.378;-1.342;2024-01-07T10:14:16;101331.83;;;-1.82;37.16
63339;BME280;70568;51.378;-1.342;2024-01-07T10:16:42;101328.17;;;-0.87;34.60
63339;BME280;70568;51.378;-1.342;2024-01-07T10:19:09;101331.55;;;-0.65;34.78
63339;BME280;70568;51.378;-1.342;2024-01-07T10:21:36;101326.10;;;0.04;32.44
63339;BME280;70568;51.378;-1.342;2024-01-07T10:24:11;101330.20;;;-1.59;33.67
63339;BME280;70568;51.378;-1.342;2024-01-07T10:26:39;101332.50;;;-0.05;31.67
63339;BME280;70568;51.378;-1.342;2024-01-07T10:29:07;101338.13;;;-0.67;31.42
63339;BME280;70568;51.378;-1.342;2024-01-07T10:31:35;101340.28;;;0.50;31.68
63339;BME280;70568;51.378;-1.342;2024-01-07T10:34:02;101344.35;;;0.32;31.26
63339;BME280;70568;51.378;-1.342;2024-01-07T10:36:29;101349.09;;;0.25;32.92
63339;BME280;70568;51.378;-1.342;2024-01-07T10:38:57;101355.12;;;-2.52;35.87
63339;BME280;70568;51.378;-1.342;2024-01-07T10:41:24;101348.75;;;-0.02;32.41
63339;BME280;70568;51.378;-1.342;2024-01-07T10:43:51;101349.83;;;-2.55;35.65
63339;BME280;70568;51.378;-1.342;2024-01-07T10:46:19;101348.66;;;-2.38;34.55
63339;BME280;70568;51.378;-1.342;2024-01-07T10:48:53;101347.02;;;0.30;32.62
63339;BME280;70568;51.378;-1.342;2024-01-07T10:51:21;101350.58;;;-1.44;33.58
63339;BME280;70568;51.378;-1.342;2024-01-07T10:53:52;101348.67;;;-1.08;33.99
63339;BME280;70568;51.378;-1.342;2024-01-07T10:56:22;101349.05;;;0.91;32.51
63339;BME280;70568;51.378;-1.342;2024-01-07T10:58:51;101350.61;;;-0.65;32.21
63339;BME280;70568;51.378;-1.342;2024-01-07T11:01:19;101351.67;;;0.51;31.84
63339;BME280;70568;51.378;-1.342;2024-01-07T11:04:03;101361.54;;;-3.29;34.34
63339;BME280;70568;51.378;-1.342;2024-01-07T11:06:38;101356.65;;;-1.18;33.54
63339;BME280;70568;51.378;-1.342;2024-01-07T11:09:20;101357.02;;;-3.48;35.79
63339;BME280;70568;51.378;-1.342;2024-01-07T11:11:47;101352.71;;;-3.97;36.47
63339;BME280;70568;51.378;-1.342;2024-01-07T11:14:47;101353.57;;;-2.81;36.63
63339;BME280;70568;51.378;-1.342;2024-01-07T11:17:13;101354.84;;;-0.54;33.05
63339;BME280;70568;51.378;-1.342;2024-01-07T11:19:49;101350.98;;;-0.73;33.12
63339;BME280;70568;51.378;-1.342;2024-01-07T11:22:24;101351.65;;;-3.36;34.76
63339;BME280;70568;51.378;-1.342;2024-01-07T11:24:51;101351.44;;;-0.66;32.84
63339;BME280;70568;51.378;-1.342;2024-01-07T11:27:20;101351.13;;;-0.25;32.60
63339;BME280;70568;51.378;-1.342;2024-01-07T11:29:53;101355.75;;;-0.29;31.64
63339;BME280;70568;51.378;-1.342;2024-01-07T11:32:22;101363.94;;;-3.67;36.14
63339;BME280;70568;51.378;-1.342;2024-01-07T11:34:49;101360.91;;;-4.12;36.65
63339;BME280;70568;51.378;-1.342;2024-01-07T11:37:16;101358.95;;;-2.58;35.78
63339;BME280;70568;51.378;-1.342;2024-01-07T11:39:42;101355.78;;;-0.99;34.37
63339;BME280;70568;51.378;-1.342;2024-01-07T11:42:09;101354.44;;;0.42;31.88
63339;BME280;70568;51.378;-1.342;2024-01-07T11:44:36;101352.45;;;-0.28;31.68
63339;BME280;70568;51.378;-1.342;2024-01-07T11:47:03;101354.14;;;-0.94;31.80
63339;BME280;70568;51.378;-1.342;2024-01-07T11:49:32;101354.30;;;0.56;30.60
63339;BME280;70568;51.378;-1.342;2024-01-07T11:51:59;101358.13;;;-1.21;31.79
63339;BME280;70568;51.378;-1.342;2024-01-07T11:54:25;101351.90;;;-2.24;31.64
63339;BME280;70568;51.378;-1.342;2024-01-07T11:56:52;101353.25;;;0.26;31.64
63339;BME280;70568;51.378;-1.342;2024-01-07T11:59:19;101356.59;;;0.24;30.99
63339;BME280;70568;51.378;-1.342;2024-01-07T12:01:46;101356.29;;;-0.78;31.86
63339;BME280;70568;51.378;-1.342;2024-01-07T12:04:13;101350.43;;;0.43;31.20
63339;BME280;70568;51.378;-1.342;2024-01-07T12:06:40;101349.59;;;0.21;30.95
63339;BME280;70568;51.378;-1.342;2024-01-07T12:09:07;101348.60;;;-0.41;31.41
63339;BME280;70568;51.378;-1.342;2024-01-07T12:11:34;101352.41;;;-2.77;33.22
63339;BME280;70568;51.378;-1.342;2024-01-07T12:14:01;101346.36;;;-0.84;32.22
63339;BME280;70568;51.378;-1.342;2024-01-07T12:16:27;101346.22;;;-1.62;32.10
63339;BME280;70568;51.378;-1.342;2024-01-07T12:18:54;101345.17;;;-1.29;31.67
63339;BME280;70568;51.378;-1.342;2024-01-07T12:21:21;101338.90;;;1.10;29.74
63339;BME280;70568;51.378;-1.342;2024-01-07T12:23:49;101337.70;;;0.77;28.77
63339;BME280;70568;51.378;-1.342;2024-01-07T12:26:16;101339.44;;;1.06;28.13
63339;BME280;70568;51.378;-1.342;2024-01-07T12:28:43;101341.30;;;2.63;28.48
63339;BME280;70568;51.378;-1.342;2024-01-07T12:31:10;101344.19;;;0.58;30.02
63339;BME280;70568;51.378;-1.342;2024-01-07T12:33:37;101338.66;;;-1.40;32.78
63339;BME280;70568;51.378;-1.342;2024-01-07T12:36:05;101344.11;;;-1.85;33.32
63339;BME280;70568;51.378;-1.342;2024-01-07T12:38:33;101336.65;;;-0.51;31.45
63339;BME280;70568;51.378;-1.342;2024-01-07T12:40:59;101333.37;;;-2.20;32.11
63339;BME280;70568;51.378;-1.342;2024-01-07T12:43:26;101336.90;;;-1.37;30.29
63339;BME280;70568;51.378;-1.342;2024-01-07T12:45:52;101338.28;;;-0.26;29.56